sensor_id;sensor_type;location;lat;lon;timestamp;temperature;humidity
26687;DHT22;14298;50.900;4.648;2022-09-17T00:01:32;10.10;97.10
26687;DHT22;14298;50.900;4.648;2022-09-17T00:04:01;10.10;97.10
26687;DHT22;14298;50.900;4.648;2022-09-17T00:06:33;10.10;97.10
26687;DHT22;14298;50.900;4.648;2022-09-17T00:09:04;10.20;97.10
26687;DHT22;14298;50.900;4.648;2022-09-17T00:11:35;10.20;97.10
26687;DHT22;14298;50.900;4.648;2022-09-17T00:14:06;10.30;97.10
26687;DHT22;14298;50.900;4.648;2022-09-17T00:16:39;10.30;97.10
26687;DHT22;14298;50.900;4.648;2022-09-17T00:19:11;10.30;97.10
26687;DHT22;14298;50.900;4.648;2022-09-17T00:21:40;10.30;97.10
26687;DHT22;14298;50.900;4.648;2022-09-17T00:24:11;10.30;97.10
26687;DHT22;14298;50.900;4.648;2022-09-17T00:26:40;10.40;97.10
26687;DHT22;14298;50.900;4.648;2022-09-17T00:29:09;10.30;97.10
26687;DHT22;14298;50.900;4.648;2022-09-17T00:31:38;10.40;97.10
26687;DHT22;14298;50.900;4.648;2022-09-17T00:34:07;10.40;97.10
26687;DHT22;14298;50.900;4.648;2022-09-17T00:36:37;10.40;97.10
26687;DHT22;14298;50.900;4.648;2022-09-17T00:39:08;10.50;97.10
26687;DHT22;14298;50.900;4.648;2022-09-17T00:41:56;10.50;97.10
26687;DHT22;14298;50.900;4.648;2022-09-17T00:44:43;10.50;97.10
26687;DHT22;14298;50.900;4.648;2022-09-17T00:47:32;10.50;97.10
26687;DHT22;14298;50.900;4.648;2022-09-17T00:50:05;10.40;97.10
26687;DHT22;14298;50.900;4.648;2022-09-17T00:52:40;10.50;97.10
26687;DHT22;14298;50.900;4.648;2022-09-17T00:55:24;10.50;97.10
26687;DHT22;14298;50.900;4.648;2022-09-17T00:57:56;10.60;97.10
26687;DHT22;14298;50.900;4.648;2022-09-17T01:00:26;10.60;97.10
26687;DHT22;14298;50.900;4.648;2022-09-17T01:02:55;10.50;97.10
26687;DHT22;14298;50.900;4.648;2022-09-17T01:05:51;10.50;97.10
26687;DHT22;14298;50.900;4.648;2022-09-17T01:16:47;10.60;97.10
26687;DHT22;14298;50.900;4.648;2022-09-17T01:22:28;10.60;97.10
26687;DHT22;14298;50.900;4.648;2022-09-17T01:25:17;10.60;97.10
26687;DHT22;14298;50.900;4.648;2022-09-17T01:30:33;10.50;97.10
26687;DHT22;14298;50.900;4.648;2022-09-17T01:33:12;10.50;97.10
26687;DHT22;14298;50.900;4.648;2022-09-17T01:35:49;10.40;97.10
26687;DHT22;14298;50.900;4.648;2022-09-17T01:38:30;10.40;97.10
26687;DHT22;14298;50.900;4.648;2022-09-17T01:41:08;10.40;97.10
26687;DHT22;14298;50.900;4.648;2022-09-17T01:44:05;10.30;97.10
26687;DHT22;14298;50.900;4.648;2022-09-17T01:46:43;10.30;97.10
26687;DHT22;14298;50.900;4.648;2022-09-17T01:49:14;10.30;97.10
26687;DHT22;14298;50.900;4.648;2022-09-17T01:51:45;10.40;97.10
26687;DHT22;14298;50.900;4.648;2022-09-17T01:57:07;10.50;97.10
26687;DHT22;14298;50.900;4.648;2022-09-17T01:59:48;10.50;97.10
26687;DHT22;14298;50.900;4.648;2022-09-17T02:02:20;10.40;97.10
26687;DHT22;14298;50.900;4.648;2022-09-17T02:05:00;10.40;97.10
26687;DHT22;14298;50.900;4.648;2022-09-17T02:07:21;10.40;97.10
26687;DHT22;14298;50.900;4.648;2022-09-17T02:09:58;10.40;97.10
26687;DHT22;14298;50.900;4.648;2022-09-17T02:12:30;10.40;97.10
26687;DHT22;14298;50.900;4.648;2022-09-17T02:15:01;10.40;97.10
26687;DHT22;14298;50.900;4.648;2022-09-17T02:17:39;10.40;97.10
26687;DHT22;14298;50.900;4.648;2022-09-17T02:20:29;10.40;97.10
26687;DHT22;14298;50.900;4.648;2022-09-17T02:22:59;10.40;97.10
26687;DHT22;14298;50.900;4.648;2022-09-17T02:25:37;10.40;97.10
26687;DHT22;14298;50.900;4.648;2022-09-17T02:30:55;10.50;97.10
26687;DHT22;14298;50.900;4.648;2022-09-17T02:33:24;10.50;97.10
26687;DHT22;14298;50.900;4.648;2022-09-17T02:35:53;10.60;97.10
26687;DHT22;14298;50.900;4.648;2022-09-17T02:38:23;10.60;97.10
26687;DHT22;14298;50.900;4.648;2022-09-17T02:40:57;10.60;97.10
26687;DHT22;14298;50.900;4.648;2022-09-17T02:43:33;10.60;97.10
26687;DHT22;14298;50.900;4.648;2022-09-17T02:46:03;10.60;97.10
26687;DHT22;14298;50.900;4.648;2022-09-17T02:48:37;10.60;97.10
26687;DHT22;14298;50.900;4.648;2022-09-17T02:54:13;10.60;97.10
26687;DHT22;14298;50.900;4.648;2022-09-17T02:59:23;10.60;97.10
26687;DHT22;14298;50.900;4.648;2022-09-17T03:02:00;10.60;97.10
26687;DHT22;14298;50.900;4.648;2022-09-17T03:04:29;10.60;97.10
26687;DHT22;14298;50.900;4.648;2022-09-17T03:07:03;10.70;97.10
26687;DHT22;14298;50.900;4.648;2022-09-17T03:09:29;10.60;97.10
26687;DHT22;14298;50.900;4.648;2022-09-17T03:11:57;10.50;97.10
26687;DHT22;14298;50.900;4.648;2022-09-17T03:14:26;10.50;97.10
26687;DHT22;14298;50.900;4.648;2022-09-17T03:16:54;10.30;97.10
26687;DHT22;14298;50.900;4.648;2022-09-17T03:19:23;10.30;97.10
26687;DHT22;14298;50.900;4.648;2022-09-17T03:21:51;10.10;97.10
26687;DHT22;14298;50.900;4.648;2022-09-17T03:24:19;10.10;97.10
26687;DHT22;14298;50.900;4.648;2022-09-17T03:26:48;10.10;97.10
26687;DHT22;14298;50.900;4.648;2022-09-17T03:29:16;10.10;97.10
26687;DHT22;14298;50.900;4.648;2022-09-17T03:31:45;10.20;97.10
26687;DHT22;14298;50.900;4.648;2022-09-17T03:34:13;10.30;97.10
26687;DHT22;14298;50.900;4.648;2022-09-17T03:36:41;10.40;97.10
26687;DHT22;14298;50.900;4.648;2022-09-17T03:39:10;10.30;97.10
26687;DHT22;14298;50.900;4.648;2022-09-17T03:41:38;10.20;97.10
26687;DHT22;14298;50.900;4.648;2022-09-17T03:44:06;10.20;97.10
26687;DHT22;14298;50.900;4.648;2022-09-17T03:46:36;10.10;97.10
26687;DHT22;14298;50.900;4.648;2022-09-17T03:49:05;10.10;97.10
26687;DHT22;14298;50.900;4.648;2022-09-17T03:51:34;10.00;97.10
26687;DHT22;14298;50.900;4.648;2022-09-17T03:54:03;10.00;97.10
26687;DHT22;14298;50.900;4.648;2022-09-17T03:56:31;10.00;97.10
26687;DHT22;14298;50.900;4.648;2022-09-17T03:59:00;9.90;97.10
26687;DHT22;14298;50.900;4.648;2022-09-17T04:01:29;9.90;97.10
26687;DHT22;14298;50.900;4.648;2022-09-17T04:03:57;9.90;97.10
26687;DHT22;14298;50.900;4.648;2022-09-17T04:06:25;9.90;97.10
26687;DHT22;14298;50.900;4.648;2022-09-17T04:08:54;9.90;97.10
26687;DHT22;14298;50.900;4.648;2022-09-17T04:11:23;9.90;97.10
26687;DHT22;14298;50.900;4.648;2022-09-17T04:13:51;9.80;97.10
26687;DHT22;14298;50.900;4.648;2022-09-17T04:16:19;9.80;97.10
26687;DHT22;14298;50.900;4.648;2022-09-17T04:18:48;9.80;97.10
26687;DHT22;14298;50.900;4.648;2022-09-17T04:21:16;9.80;97.10
26687;DHT22;14298;50.900;4.648;2022-09-17T04:23:44;9.80;97.10
26687;DHT22;14298;50.900;4.648;2022-09-17T04:26:13;9.80;97.10
26687;DHT22;14298;50.900;4.648;2022-09-17T04:28:41;9.80;97.10
26687;DHT22;14298;50.900;4.648;2022-09-17T04:31:09;9.80;97.10
26687;DHT22;14298;50.900;4.648;2022-09-17T04:33:38;9.80;97.10
26687;DHT22;14298;50.900;4.648;2022-09-17T04:36:06;9.80;97.10
26687;DHT22;14298;50.900;4.648;2022-09-17T04:38:34;9.80;97.10
26687;DHT22;14298;50.900;4.648;2022-09-17T04:41:09;9.80;97.10
26687;DHT22;14298;50.900;4.648;2022-09-17T04:43:34;9.80;97.10
26687;DHT22;14298;50.900;4.648;2022-09-17T04:46:02;9.90;97.10
26687;DHT22;14298;50.900;4.648;2022-09-17T04:48:31;9.90;97.10
26687;DHT22;14298;50.900;4.648;2022-09-17T04:50:59;9.90;97.10
26687;DHT22;14298;50.900;4.648;2022-09-17T04:53:27;10.00;97.10
26687;DHT22;14298;50.900;4.648;2022-09-17T04:55:56;10.00;97.10
26687;DHT22;14298;50.900;4.648;2022-09-17T04:58:24;10.00;97.10
26687;DHT22;14298;50.900;4.648;2022-09-17T05:00:52;10.10;97.10
26687;DHT22;14298;50.900;4.648;2022-09-17T05:03:21;10.10;97.10
26687;DHT22;14298;50.900;4.648;2022-09-17T05:05:49;10.00;97.10
26687;DHT22;14298;50.900;4.648;2022-09-17T05:08:17;9.90;97.10
26687;DHT22;14298;50.900;4.648;2022-09-17T05:10:46;9.80;97.10
26687;DHT22;14298;50.900;4.648;2022-09-17T05:13:14;9.70;97.10
26687;DHT22;14298;50.900;4.648;2022-09-17T05:15:43;9.70;97.10
26687;DHT22;14298;50.900;4.648;2022-09-17T05:18:11;9.60;97.10
26687;DHT22;14298;50.900;4.648;2022-09-17T05:20:39;9.60;97.10
26687;DHT22;14298;50.900;4.648;2022-09-17T05:23:08;9.60;97.10
26687;DHT22;14298;50.900;4.648;2022-09-17T05:25:36;9.60;97.10
26687;DHT22;14298;50.900;4.648;2022-09-17T05:28:05;9.70;97.10
26687;DHT22;14298;50.900;4.648;2022-09-17T05:30:33;9.70;97.10
26687;DHT22;14298;50.900;4.648;2022-09-17T05:33:04;9.80;97.10
26687;DHT22;14298;50.900;4.648;2022-09-17T05:35:34;9.80;97.10
26687;DHT22;14298;50.900;4.648;2022-09-17T05:38:04;9.90;97.10
26687;DHT22;14298;50.900;4.648;2022-09-17T05:40:34;10.00;97.10
26687;DHT22;14298;50.900;4.648;2022-09-17T05:43:05;10.00;97.10
26687;DHT22;14298;50.900;4.648;2022-09-17T05:45:34;10.00;97.10
26687;DHT22;14298;50.900;4.648;2022-09-17T05:48:08;10.00;97.10
26687;DHT22;14298;50.900;4.648;2022-09-17T05:50:34;10.10;97.10
26687;DHT22;14298;50.900;4.648;2022-09-17T05:53:04;10.10;97.10
26687;DHT22;14298;50.900;4.648;2022-09-17T05:55:34;10.10;97.10
26687;DHT22;14298;50.900;4.648;2022-09-17T05:58:13;10.10;97.10
26687;DHT22;14298;50.900;4.648;2022-09-17T06:00:43;10.10;97.10
26687;DHT22;14298;50.900;4.648;2022-09-17T06:03:13;10.10;97.10
26687;DHT22;14298;50.900;4.648;2022-09-17T06:05:43;10.10;97.10
26687;DHT22;14298;50.900;4.648;2022-09-17T06:08:11;10.10;97.10
26687;DHT22;14298;50.900;4.648;2022-09-17T06:10:40;10.20;97.10
26687;DHT22;14298;50.900;4.648;2022-09-17T06:13:08;10.20;97.10
26687;DHT22;14298;50.900;4.648;2022-09-17T06:15:36;10.30;97.10
26687;DHT22;14298;50.900;4.648;2022-09-17T06:18:05;10.40;97.10
26687;DHT22;14298;50.900;4.648;2022-09-17T06:20:33;10.40;97.10
26687;DHT22;14298;50.900;4.648;2022-09-17T06:23:01;10.50;97.10
26687;DHT22;14298;50.900;4.648;2022-09-17T06:25:30;10.60;97.10
26687;DHT22;14298;50.900;4.648;2022-09-17T06:28:00;10.70;97.10
26687;DHT22;14298;50.900;4.648;2022-09-17T06:30:28;10.80;97.10
26687;DHT22;14298;50.900;4.648;2022-09-17T06:32:58;10.80;97.10
26687;DHT22;14298;50.900;4.648;2022-09-17T06:35:27;10.60;97.10
26687;DHT22;14298;50.900;4.648;2022-09-17T06:37:55;10.60;97.10
26687;DHT22;14298;50.900;4.648;2022-09-17T06:40:24;10.60;97.10
26687;DHT22;14298;50.900;4.648;2022-09-17T06:42:57;10.60;97.10
26687;DHT22;14298;50.900;4.648;2022-09-17T06:45:26;10.80;97.10
26687;DHT22;14298;50.900;4.648;2022-09-17T06:47:55;10.80;97.10
26687;DHT22;14298;50.900;4.648;2022-09-17T06:50:23;10.90;97.10
26687;DHT22;14298;50.900;4.648;2022-09-17T06:52:53;11.00;97.10
26687;DHT22;14298;50.900;4.648;2022-09-17T06:55:21;11.10;97.10
26687;DHT22;14298;50.900;4.648;2022-09-17T06:57:50;11.30;97.10
26687;DHT22;14298;50.900;4.648;2022-09-17T07:00:18;11.50;97.10
26687;DHT22;14298;50.900;4.648;2022-09-17T07:02:58;11.50;97.10
26687;DHT22;14298;50.900;4.648;2022-09-17T07:05:24;11.60;97.10
26687;DHT22;14298;50.900;4.648;2022-09-17T07:07:53;11.60;97.10
26687;DHT22;14298;50.900;4.648;2022-09-17T07:10:22;11.60;97.10
26687;DHT22;14298;50.900;4.648;2022-09-17T07:13:10;11.50;97.10
26687;DHT22;14298;50.900;4.648;2022-09-17T07:15:38;11.50;97.10
26687;DHT22;14298;50.900;4.648;2022-09-17T07:18:10;11.70;97.10
26687;DHT22;14298;50.900;4.648;2022-09-17T07:20:39;11.80;97.10
26687;DHT22;14298;50.900;4.648;2022-09-17T07:23:07;11.90;97.10
26687;DHT22;14298;50.900;4.648;2022-09-17T07:25:35;12.20;97.10
26687;DHT22;14298;50.900;4.648;2022-09-17T07:28:04;12.30;97.10
26687;DHT22;14298;50.900;4.648;2022-09-17T07:30:32;12.10;97.10
26687;DHT22;14298;50.900;4.648;2022-09-17T07:33:01;11.90;97.10
26687;DHT22;14298;50.900;4.648;2022-09-17T07:35:29;11.90;97.10
26687;DHT22;14298;50.900;4.648;2022-09-17T07:37:57;12.00;97.10
26687;DHT22;14298;50.900;4.648;2022-09-17T07:40:26;11.90;97.10
26687;DHT22;14298;50.900;4.648;2022-09-17T07:42:56;11.80;97.10
26687;DHT22;14298;50.900;4.648;2022-09-17T07:45:24;11.90;97.10
26687;DHT22;14298;50.900;4.648;2022-09-17T07:47:53;11.60;97.10
26687;DHT22;14298;50.900;4.648;2022-09-17T07:50:21;11.60;97.10
26687;DHT22;14298;50.900;4.648;2022-09-17T07:52:49;11.60;97.10
26687;DHT22;14298;50.900;4.648;2022-09-17T07:55:19;11.80;97.10
26687;DHT22;14298;50.900;4.648;2022-09-17T07:57:51;11.70;97.10
26687;DHT22;14298;50.900;4.648;2022-09-17T08:00:20;11.90;97.10
26687;DHT22;14298;50.900;4.648;2022-09-17T08:02:55;12.20;97.10
26687;DHT22;14298;50.900;4.648;2022-09-17T08:05:43;12.40;97.10
26687;DHT22;14298;50.900;4.648;2022-09-17T08:08:12;12.50;97.10
26687;DHT22;14298;50.900;4.648;2022-09-17T08:10:40;12.60;97.10
26687;DHT22;14298;50.900;4.648;2022-09-17T08:13:10;12.70;97.10
26687;DHT22;14298;50.900;4.648;2022-09-17T08:15:38;12.60;97.10
26687;DHT22;14298;50.900;4.648;2022-09-17T08:18:07;12.50;97.10
26687;DHT22;14298;50.900;4.648;2022-09-17T08:20:35;12.50;97.10
26687;DHT22;14298;50.900;4.648;2022-09-17T08:23:03;12.70;97.10
26687;DHT22;14298;50.900;4.648;2022-09-17T08:25:31;13.60;97.10
26687;DHT22;14298;50.900;4.648;2022-09-17T08:28:00;14.30;97.10
26687;DHT22;14298;50.900;4.648;2022-09-17T08:30:28;14.80;97.10
26687;DHT22;14298;50.900;4.648;2022-09-17T08:32:58;14.50;97.10
26687;DHT22;14298;50.900;4.648;2022-09-17T08:35:26;14.10;97.10
26687;DHT22;14298;50.900;4.648;2022-09-17T08:37:54;13.60;97.10
26687;DHT22;14298;50.900;4.648;2022-09-17T08:40:23;13.50;97.10
26687;DHT22;14298;50.900;4.648;2022-09-17T08:42:55;13.60;97.10
26687;DHT22;14298;50.900;4.648;2022-09-17T08:45:25;13.40;97.10
26687;DHT22;14298;50.900;4.648;2022-09-17T08:48:01;12.90;97.10
26687;DHT22;14298;50.900;4.648;2022-09-17T08:50:31;13.50;97.10
26687;DHT22;14298;50.900;4.648;2022-09-17T08:55:49;15.70;97.10
26687;DHT22;14298;50.900;4.648;2022-09-17T08:58:36;16.00;97.10
26687;DHT22;14298;50.900;4.648;2022-09-17T09:01:21;16.30;97.10
26687;DHT22;14298;50.900;4.648;2022-09-17T09:06:49;18.30;97.10
26687;DHT22;14298;50.900;4.648;2022-09-17T09:09:14;18.00;97.10
26687;DHT22;14298;50.900;4.648;2022-09-17T09:11:43;16.60;97.10
26687;DHT22;14298;50.900;4.648;2022-09-17T09:14:26;15.30;97.10
26687;DHT22;14298;50.900;4.648;2022-09-17T09:16:54;14.60;97.10
26687;DHT22;14298;50.900;4.648;2022-09-17T09:19:31;13.80;97.10
26687;DHT22;14298;50.900;4.648;2022-09-17T09:22:13;13.40;97.10
26687;DHT22;14298;50.900;4.648;2022-09-17T09:24:41;13.10;97.10
26687;DHT22;14298;50.900;4.648;2022-09-17T09:27:18;13.00;97.10
26687;DHT22;14298;50.900;4.648;2022-09-17T09:29:53;13.00;97.10
26687;DHT22;14298;50.900;4.648;2022-09-17T09:32:32;13.40;97.10
26687;DHT22;14298;50.900;4.648;2022-09-17T09:34:54;13.60;97.10
26687;DHT22;14298;50.900;4.648;2022-09-17T09:37:29;14.40;97.10
26687;DHT22;14298;50.900;4.648;2022-09-17T09:40:03;16.90;97.10
26687;DHT22;14298;50.900;4.648;2022-09-17T09:42:33;18.10;97.10
26687;DHT22;14298;50.900;4.648;2022-09-17T09:48:07;20.90;97.10
26687;DHT22;14298;50.900;4.648;2022-09-17T09:50:44;21.80;97.10
26687;DHT22;14298;50.900;4.648;2022-09-17T09:56:25;22.10;97.10
26687;DHT22;14298;50.900;4.648;2022-09-17T09:58:47;22.20;97.10
26687;DHT22;14298;50.900;4.648;2022-09-17T10:01:18;21.60;97.10
26687;DHT22;14298;50.900;4.648;2022-09-17T10:03:48;19.80;97.10
26687;DHT22;14298;50.900;4.648;2022-09-17T10:06:18;18.00;97.10
26687;DHT22;14298;50.900;4.648;2022-09-17T10:11:27;15.90;97.10
26687;DHT22;14298;50.900;4.648;2022-09-17T10:16:43;14.80;97.10
26687;DHT22;14298;50.900;4.648;2022-09-17T10:19:18;14.30;97.10
26687;DHT22;14298;50.900;4.648;2022-09-17T10:21:48;14.00;97.10
26687;DHT22;14298;50.900;4.648;2022-09-17T10:24:27;13.40;97.10
26687;DHT22;14298;50.900;4.648;2022-09-17T10:27:17;13.00;97.10
26687;DHT22;14298;50.900;4.648;2022-09-17T10:32:26;12.40;97.10
26687;DHT22;14298;50.900;4.648;2022-09-17T10:37:47;12.00;97.10
26687;DHT22;14298;50.900;4.648;2022-09-17T10:40:24;11.50;97.10
26687;DHT22;14298;50.900;4.648;2022-09-17T10:45:57;11.60;97.10
26687;DHT22;14298;50.900;4.648;2022-09-17T10:48:30;11.70;97.10
26687;DHT22;14298;50.900;4.648;2022-09-17T10:50:58;11.70;97.10
26687;DHT22;14298;50.900;4.648;2022-09-17T10:53:28;12.00;97.10
26687;DHT22;14298;50.900;4.648;2022-09-17T10:59:04;12.60;97.10
26687;DHT22;14298;50.900;4.648;2022-09-17T11:04:56;13.30;97.10
26687;DHT22;14298;50.900;4.648;2022-09-17T11:15:14;12.00;97.10
26687;DHT22;14298;50.900;4.648;2022-09-17T11:20:34;12.10;97.10
26687;DHT22;14298;50.900;4.648;2022-09-17T11:25:58;12.90;97.10
26687;DHT22;14298;50.900;4.648;2022-09-17T11:31:24;13.00;97.10
26687;DHT22;14298;50.900;4.648;2022-09-17T11:36:30;12.70;97.10
26687;DHT22;14298;50.900;4.648;2022-09-17T11:39:06;12.40;97.10
26687;DHT22;14298;50.900;4.648;2022-09-17T11:41:36;12.30;97.10
26687;DHT22;14298;50.900;4.648;2022-09-17T11:44:11;12.40;97.10
26687;DHT22;14298;50.900;4.648;2022-09-17T11:46:48;12.30;97.10
26687;DHT22;14298;50.900;4.648;2022-09-17T11:52:33;12.60;97.10
26687;DHT22;14298;50.900;4.648;2022-09-17T11:55:02;12.70;97.10
26687;DHT22;14298;50.900;4.648;2022-09-17T11:57:31;12.70;97.10
26687;DHT22;14298;50.900;4.648;2022-09-17T12:00:12;12.80;97.10
26687;DHT22;14298;50.900;4.648;2022-09-17T12:02:59;12.70;97.10
26687;DHT22;14298;50.900;4.648;2022-09-17T12:05:52;12.70;97.10
26687;DHT22;14298;50.900;4.648;2022-09-17T12:08:21;12.80;97.10
26687;DHT22;14298;50.900;4.648;2022-09-17T12:11:10;13.10;97.10
26687;DHT22;14298;50.900;4.648;2022-09-17T12:13:50;13.50;97.10
26687;DHT22;14298;50.900;4.648;2022-09-17T12:16:21;13.60;97.10
26687;DHT22;14298;50.900;4.648;2022-09-17T12:21:48;13.20;97.10
26687;DHT22;14298;50.900;4.648;2022-09-17T12:27:18;13.10;97.10
26687;DHT22;14298;50.900;4.648;2022-09-17T12:32:42;13.20;97.10
26687;DHT22;14298;50.900;4.648;2022-09-17T12:35:47;13.20;97.10
26687;DHT22;14298;50.900;4.648;2022-09-17T12:41:23;13.00;97.10
26687;DHT22;14298;50.900;4.648;2022-09-17T12:46:55;13.10;97.10
26687;DHT22;14298;50.900;4.648;2022-09-17T12:49:44;12.80;97.10
26687;DHT22;14298;50.900;4.648;2022-09-17T12:57:54;13.30;97.10
26687;DHT22;14298;50.900;4.648;2022-09-17T13:00:20;13.40;97.10
26687;DHT22;14298;50.900;4.648;2022-09-17T13:05:58;13.20;97.10
26687;DHT22;14298;50.900;4.648;2022-09-17T13:13:55;13.40;97.10
26687;DHT22;14298;50.900;4.648;2022-09-17T13:16:49;13.30;97.10
26687;DHT22;14298;50.900;4.648;2022-09-17T13:19:26;13.10;97.10
26687;DHT22;14298;50.900;4.648;2022-09-17T13:24:42;12.90;97.10
26687;DHT22;14298;50.900;4.648;2022-09-17T13:27:24;12.80;97.10
26687;DHT22;14298;50.900;4.648;2022-09-17T13:30:13;12.80;97.10
26687;DHT22;14298;50.900;4.648;2022-09-17T13:32:45;12.90;97.10
26687;DHT22;14298;50.900;4.648;2022-09-17T13:40:27;12.80;97.10
26687;DHT22;14298;50.900;4.648;2022-09-17T13:46:18;13.00;97.10
26687;DHT22;14298;50.900;4.648;2022-09-17T13:48:09;13.10;97.10
26687;DHT22;14298;50.900;4.648;2022-09-17T13:50:43;13.40;97.10
26687;DHT22;14298;50.900;4.648;2022-09-17T13:53:19;13.40;97.10
26687;DHT22;14298;50.900;4.648;2022-09-17T13:55:54;13.40;97.10
26687;DHT22;14298;50.900;4.648;2022-09-17T13:58:32;13.30;97.10
26687;DHT22;14298;50.900;4.648;2022-09-17T14:22:13;11.70;97.10
26687;DHT22;14298;50.900;4.648;2022-09-17T14:24:51;11.60;97.10
26687;DHT22;14298;50.900;4.648;2022-09-17T14:27:50;11.50;97.10
26687;DHT22;14298;50.900;4.648;2022-09-17T14:30:22;11.50;97.10
26687;DHT22;14298;50.900;4.648;2022-09-17T14:35:48;11.60;97.10
26687;DHT22;14298;50.900;4.648;2022-09-17T14:38:37;11.70;97.10
26687;DHT22;14298;50.900;4.648;2022-09-17T14:44:05;11.60;97.10
26687;DHT22;14298;50.900;4.648;2022-09-17T14:46:42;11.60;97.10
26687;DHT22;14298;50.900;4.648;2022-09-17T14:49:21;11.70;97.10
26687;DHT22;14298;50.900;4.648;2022-09-17T14:51:51;11.60;97.10
26687;DHT22;14298;50.900;4.648;2022-09-17T14:54:25;11.90;97.10
26687;DHT22;14298;50.900;4.648;2022-09-17T15:02:02;12.40;97.10
26687;DHT22;14298;50.900;4.648;2022-09-17T15:04:31;12.50;97.10
26687;DHT22;14298;50.900;4.648;2022-09-17T15:07:11;12.70;97.10
26687;DHT22;14298;50.900;4.648;2022-09-17T15:09:36;12.90;97.10
26687;DHT22;14298;50.900;4.648;2022-09-17T15:12:06;12.80;97.10
26687;DHT22;14298;50.900;4.648;2022-09-17T15:14:36;12.70;97.10
26687;DHT22;14298;50.900;4.648;2022-09-17T15:17:06;12.50;97.10
26687;DHT22;14298;50.900;4.648;2022-09-17T15:19:42;12.50;97.10
26687;DHT22;14298;50.900;4.648;2022-09-17T15:22:16;12.60;97.10
26687;DHT22;14298;50.900;4.648;2022-09-17T15:24:51;12.60;97.10
26687;DHT22;14298;50.900;4.648;2022-09-17T15:27:23;12.40;97.10
26687;DHT22;14298;50.900;4.648;2022-09-17T15:29:57;12.20;97.10
26687;DHT22;14298;50.900;4.648;2022-09-17T15:32:26;12.10;97.10
26687;DHT22;14298;50.900;4.648;2022-09-17T15:37:49;11.70;97.10
26687;DHT22;14298;50.900;4.648;2022-09-17T15:40:27;11.70;97.10
26687;DHT22;14298;50.900;4.648;2022-09-17T15:45:50;11.90;97.10
26687;DHT22;14298;50.900;4.648;2022-09-17T15:51:01;11.90;97.10
26687;DHT22;14298;50.900;4.648;2022-09-17T15:53:31;11.90;97.10
26687;DHT22;14298;50.900;4.648;2022-09-17T15:56:12;11.80;97.10
26687;DHT22;14298;50.900;4.648;2022-09-17T16:09:00;11.90;97.10
26687;DHT22;14298;50.900;4.648;2022-09-17T16:11:30;11.90;97.10
26687;DHT22;14298;50.900;4.648;2022-09-17T16:14:00;11.90;97.10
26687;DHT22;14298;50.900;4.648;2022-09-17T16:16:34;12.00;97.10
26687;DHT22;14298;50.900;4.648;2022-09-17T16:19:03;11.90;97.10
26687;DHT22;14298;50.900;4.648;2022-09-17T16:21:32;11.70;97.10
26687;DHT22;14298;50.900;4.648;2022-09-17T16:24:01;11.50;97.10
26687;DHT22;14298;50.900;4.648;2022-09-17T16:26:31;11.50;97.10
26687;DHT22;14298;50.900;4.648;2022-09-17T16:29:06;11.40;97.10
26687;DHT22;14298;50.900;4.648;2022-09-17T16:31:35;11.50;97.10
26687;DHT22;14298;50.900;4.648;2022-09-17T16:34:03;11.60;97.10
26687;DHT22;14298;50.900;4.648;2022-09-17T16:36:31;11.60;97.10
26687;DHT22;14298;50.900;4.648;2022-09-17T16:39:00;11.60;97.10
26687;DHT22;14298;50.900;4.648;2022-09-17T16:41:28;11.70;97.10
26687;DHT22;14298;50.900;4.648;2022-09-17T16:43:57;11.70;97.10
26687;DHT22;14298;50.900;4.648;2022-09-17T16:46:25;11.70;97.10
26687;DHT22;14298;50.900;4.648;2022-09-17T16:48:54;11.70;97.10
26687;DHT22;14298;50.900;4.648;2022-09-17T16:51:23;11.80;97.10
26687;DHT22;14298;50.900;4.648;2022-09-17T16:53:51;11.80;97.10
26687;DHT22;14298;50.900;4.648;2022-09-17T16:56:20;11.70;97.10
26687;DHT22;14298;50.900;4.648;2022-09-17T16:58:53;11.80;97.10
26687;DHT22;14298;50.900;4.648;2022-09-17T17:01:22;11.90;97.10
26687;DHT22;14298;50.900;4.648;2022-09-17T17:03:51;11.80;97.10
26687;DHT22;14298;50.900;4.648;2022-09-17T17:06:21;11.80;97.10
26687;DHT22;14298;50.900;4.648;2022-09-17T17:08:49;11.80;97.10
26687;DHT22;14298;50.900;4.648;2022-09-17T17:11:18;11.80;97.10
26687;DHT22;14298;50.900;4.648;2022-09-17T17:13:46;11.80;97.10
26687;DHT22;14298;50.900;4.648;2022-09-17T17:16:20;11.80;97.10
26687;DHT22;14298;50.900;4.648;2022-09-17T17:18:44;11.80;97.10
26687;DHT22;14298;50.900;4.648;2022-09-17T17:21:13;11.80;97.10
26687;DHT22;14298;50.900;4.648;2022-09-17T17:23:42;11.90;97.10
26687;DHT22;14298;50.900;4.648;2022-09-17T17:26:10;11.90;97.10
26687;DHT22;14298;50.900;4.648;2022-09-17T17:28:39;12.00;97.10
26687;DHT22;14298;50.900;4.648;2022-09-17T17:31:07;12.00;97.10
26687;DHT22;14298;50.900;4.648;2022-09-17T17:33:35;12.00;97.10
26687;DHT22;14298;50.900;4.648;2022-09-17T17:36:05;12.00;97.10
26687;DHT22;14298;50.900;4.648;2022-09-17T17:38:34;12.10;97.10
26687;DHT22;14298;50.900;4.648;2022-09-17T17:41:11;12.10;97.10
26687;DHT22;14298;50.900;4.648;2022-09-17T17:43:40;12.10;97.10
26687;DHT22;14298;50.900;4.648;2022-09-17T17:46:10;12.10;97.10
26687;DHT22;14298;50.900;4.648;2022-09-17T17:48:39;12.10;97.10
26687;DHT22;14298;50.900;4.648;2022-09-17T17:51:08;12.00;97.10
26687;DHT22;14298;50.900;4.648;2022-09-17T17:53:44;12.00;97.10
26687;DHT22;14298;50.900;4.648;2022-09-17T17:56:09;12.00;97.10
26687;DHT22;14298;50.900;4.648;2022-09-17T17:58:39;11.90;97.10
26687;DHT22;14298;50.900;4.648;2022-09-17T18:01:18;11.90;97.10
26687;DHT22;14298;50.900;4.648;2022-09-17T18:03:47;11.90;97.10
26687;DHT22;14298;50.900;4.648;2022-09-17T18:06:15;11.80;97.10
26687;DHT22;14298;50.900;4.648;2022-09-17T18:08:44;11.80;97.10
26687;DHT22;14298;50.900;4.648;2022-09-17T18:11:12;11.80;97.10
26687;DHT22;14298;50.900;4.648;2022-09-17T18:13:41;11.80;97.10
26687;DHT22;14298;50.900;4.648;2022-09-17T18:16:12;11.70;97.10
26687;DHT22;14298;50.900;4.648;2022-09-17T18:18:42;11.70;97.10
26687;DHT22;14298;50.900;4.648;2022-09-17T18:21:14;11.70;97.10
26687;DHT22;14298;50.900;4.648;2022-09-17T18:23:43;11.70;97.10
26687;DHT22;14298;50.900;4.648;2022-09-17T18:26:20;11.70;97.10
26687;DHT22;14298;50.900;4.648;2022-09-17T18:28:49;11.70;97.10
26687;DHT22;14298;50.900;4.648;2022-09-17T18:31:26;11.60;97.10
26687;DHT22;14298;50.900;4.648;2022-09-17T18:33:56;11.70;97.10
26687;DHT22;14298;50.900;4.648;2022-09-17T18:36:27;11.70;97.10
26687;DHT22;14298;50.900;4.648;2022-09-17T18:38:57;11.60;97.10
26687;DHT22;14298;50.900;4.648;2022-09-17T18:41:29;11.70;97.10
26687;DHT22;14298;50.900;4.648;2022-09-17T18:43:59;11.70;97.10
26687;DHT22;14298;50.900;4.648;2022-09-17T18:46:27;11.60;97.10
26687;DHT22;14298;50.900;4.648;2022-09-17T18:48:57;11.60;97.10
26687;DHT22;14298;50.900;4.648;2022-09-17T18:51:27;11.60;97.10